Time;durP1;ratioP1;P1;durP2;ratioP2;P2;SDS_P1;SDS_P2;PMS_P1;PMS_P2;Temp;Humidity;BMP_temperature;BMP_pressure;BME280_temperature;BME280_humidity;BME280_pressure;Samples;Min_cycle;Max_cycle;Signal;HPM_P1;HPM_P2
2023/10/22 00:00:49;;;;;;;;;;;;;;;29.14;63.50;101200.16;5037421;28;70670;-41
2023/10/22 00:03:19;;;;;;;;;;;;;;;29.46;63.83;101251.84;5037963;28;66058;-41
2023/10/22 00:05:52;;;;;;;;;;;;;;;29.47;63.40;101248.94;5038979;28;70726;-42
2023/10/22 00:08:23;;;;;;;;;;;;;;;29.51;64.28;101241.28;5037647;28;66940;-42
2023/10/22 00:10:53;;;;;;;;;;;;;;;29.54;67.94;101243.56;5035910;28;70538;-42
2023/10/22 00:13:23;;;;;;;;;;;;;;;29.57;67.64;101248.56;5040444;28;67051;-41
2023/10/22 00:15:53;;;;;;;;;;;;;;;29.61;69.81;101244.41;5039015;28;70606;-42
2023/10/22 00:18:23;;;;;;;;;;;;;;;29.62;69.91;101241.50;5039476;28;66386;-42
2023/10/22 00:20:56;;;;;;;;;;;;;;;29.67;71.45;101246.34;5039898;28;70725;-42
2023/10/22 00:23:31;;;;;;;;;;;;;;;29.71;72.05;101255.72;5040042;28;66016;-43
2023/10/22 00:26:01;;;;;;;;;;;;;;;29.73;72.27;101255.53;5039856;28;70785;-42
2023/10/22 00:28:35;;;;;;;;;;;;;;;29.74;72.27;101260.72;5039562;28;66567;-42
2023/10/22 00:31:11;;;;;;;;;;;;;;;29.75;74.00;101264.25;5038265;28;70443;-43
2023/10/22 00:33:41;;;;;;;;;;;;;;;29.75;76.65;101267.78;5038597;28;67159;-43
2023/10/22 00:36:12;;;;;;;;;;;;;;;29.73;78.11;101264.47;5037360;28;69271;-43
2023/10/22 00:38:46;;;;;;;;;;;;;;;29.43;78.16;101217.94;5034617;28;65924;-43
2023/10/22 00:41:18;;;;;;;;;;;;;;;29.73;78.44;101267.16;5052428;28;69041;-42
2023/10/22 00:43:48;;;;;;;;;;;;;;;29.72;78.57;101262.78;5037186;28;66875;-41
2023/10/22 00:46:22;;;;;;;;;;;;;;;29.79;75.45;101262.81;5037792;28;70321;-41
2023/10/22 00:49:04;;;;;;;;;;;;;;;29.83;73.59;101261.34;5037365;28;65582;-41
2023/10/22 00:51:40;;;;;;;;;;;;;;;29.87;71.74;101259.91;5053760;28;69722;-41
2023/10/22 00:54:12;;;;;;;;;;;;;;;29.91;71.46;101276.56;5040032;28;66640;-42
2023/10/22 00:56:42;;;;;;;;;;;;;;;29.94;69.95;101259.94;5038769;28;70435;-41
2023/10/22 00:59:15;;;;;;;;;;;;;;;29.96;70.13;101266.81;5038892;28;65944;-41
2023/10/22 01:01:46;;;;;;;;;;;;;;;29.99;69.33;101268.25;5039528;28;70541;-40
2023/10/22 01:04:20;;;;;;;;;;;;;;;30.02;69.68;101267.84;5039159;28;66363;-40
2023/10/22 01:06:52;;;;;;;;;;;;;;;30.04;69.03;101266.59;5039395;28;70440;-42
2023/10/22 01:09:25;;;;;;;;;;;;;;;30.06;69.13;101269.09;5038248;28;66973;-42
2023/10/22 01:11:58;;;;;;;;;;;;;;;30.08;69.01;101272.44;5041040;28;70498;-41
2023/10/22 01:14:32;;;;;;;;;;;;;;;30.10;68.71;101286.59;5042541;28;65069;-41
2023/10/22 01:17:03;;;;;;;;;;;;;;;30.10;68.60;101275.78;5057235;28;69827;-41
2023/10/22 01:19:36;;;;;;;;;;;;;;;30.12;68.36;101279.13;5041265;28;66515;-41
2023/10/22 01:22:09;;;;;;;;;;;;;;;30.13;68.38;101286.19;5040053;28;71030;-42
2023/10/22 01:24:40;;;;;;;;;;;;;;;30.14;68.39;101274.31;5040670;28;66096;-40
2023/10/22 01:27:14;;;;;;;;;;;;;;;30.16;68.69;101279.53;5052728;28;69918;-42
2023/10/22 01:29:44;;;;;;;;;;;;;;;30.18;68.57;101283.69;5037706;28;66668;-41
2023/10/22 01:32:14;;;;;;;;;;;;;;;30.19;68.04;101285.34;5039128;28;70393;-40
2023/10/22 01:34:45;;;;;;;;;;;;;;;30.21;67.79;101294.09;5042230;28;66642;-42
2023/10/22 01:37:18;;;;;;;;;;;;;;;30.24;69.08;101293.72;5039349;28;71040;-41
2023/10/22 01:39:48;;;;;;;;;;;;;;;30.26;69.54;101288.94;5036359;28;66257;-42
2023/10/22 01:42:18;;;;;;;;;;;;;;;30.30;69.58;101288.53;5039039;28;69678;-40
2023/10/22 01:44:50;;;;;;;;;;;;;;;30.03;69.21;101246.00;5039159;28;66437;-39
2023/10/22 01:47:21;;;;;;;;;;;;;;;30.34;69.34;101293.34;5041499;28;70720;-40
2023/10/22 01:49:57;;;;;;;;;;;;;;;30.36;69.35;101283.09;5042051;28;67098;-41
2023/10/22 01:52:27;;;;;;;;;;;;;;;30.38;69.32;101291.88;5039036;28;70257;-41
2023/10/22 01:55:00;;;;;;;;;;;;;;;30.42;69.12;101289.56;5053128;28;68736;-40
2023/10/22 01:57:33;;;;;;;;;;;;;;;30.44;68.80;101295.63;5038099;28;69973;-40
2023/10/22 02:00:03;;;;;;;;;;;;;;;30.45;69.13;101290.00;5037321;28;66703;-42
2023/10/22 02:02:42;;;;;;;;;;;;;;;30.48;68.75;101289.59;5038089;28;70395;-41
2023/10/22 02:05:13;;;;;;;;;;;;;;;30.51;68.28;101291.06;5038023;28;65640;-41
2023/10/22 02:07:42;;;;;;;;;;;;;;;30.55;68.95;101286.03;5037964;28;70023;-41
2023/10/22 02:10:15;;;;;;;;;;;;;;;30.57;68.55;101286.69;5035062;28;66414;-41
2023/10/22 02:12:50;;;;;;;;;;;;;;;30.59;68.84;101282.72;5051564;28;70946;-40
2023/10/22 02:15:26;;;;;;;;;;;;;;;30.61;69.28;101277.91;5040646;28;66600;-41
2023/10/22 02:17:57;;;;;;;;;;;;;;;30.64;69.06;101274.78;5038129;28;69901;-41
2023/10/22 02:20:27;;;;;;;;;;;;;;;30.66;68.93;101280.81;5038773;28;66374;-40
2023/10/22 02:22:59;;;;;;;;;;;;;;;30.67;69.17;101271.69;5030836;28;71720;-41
2023/10/22 02:25:31;;;;;;;;;;;;;;;30.70;68.94;101273.97;5037190;28;66023;-41
2023/10/22 02:28:04;;;;;;;;;;;;;;;30.71;68.38;101275.63;5035141;28;69989;-41
2023/10/22 02:30:54;;;;;;;;;;;;;;;30.74;68.62;101271.66;5036731;28;66752;-41
2023/10/22 02:33:27;;;;;;;;;;;;;;;30.77;68.57;101275.81;5054864;28;70674;-40
2023/10/22 02:35:57;;;;;;;;;;;;;;;30.79;68.75;101273.75;5039126;28;67994;-40
2023/10/22 02:38:28;;;;;;;;;;;;;;;30.81;68.58;101268.97;5054693;28;70342;-41
2023/10/22 02:40:58;;;;;;;;;;;;;;;30.83;68.95;101267.72;5053933;28;66874;-40
2023/10/22 02:43:28;;;;;;;;;;;;;;;30.85;68.92;101260.22;5037561;28;70545;-39
2023/10/22 02:45:58;;;;;;;;;;;;;;;30.89;68.71;101257.91;5052666;28;65987;-40
2023/10/22 02:48:32;;;;;;;;;;;;;;;30.80;68.39;101237.50;5039096;28;69648;-40
2023/10/22 02:51:06;;;;;;;;;;;;;;;30.92;68.60;101252.91;5035111;28;66578;-40
2023/10/22 02:53:39;;;;;;;;;;;;;;;30.97;68.45;101254.97;5053597;28;70522;-41
2023/10/22 02:56:09;;;;;;;;;;;;;;;31.00;68.34;101259.97;5040855;28;65906;-41
2023/10/22 02:58:40;;;;;;;;;;;;;;;31.02;68.72;101249.75;5036712;28;70142;-42
2023/10/22 03:01:10;;;;;;;;;;;;;;;31.04;68.51;101239.53;5041445;28;66510;-41
2023/10/22 03:03:44;;;;;;;;;;;;;;;31.06;68.19;101232.00;5057103;28;70407;-40
2023/10/22 03:06:14;;;;;;;;;;;;;;;31.08;68.53;101229.09;5040817;28;66564;-41
2023/10/22 03:08:45;;;;;;;;;;;;;;;31.11;68.40;101228.69;5040147;28;70545;-41
2023/10/22 03:11:17;;;;;;;;;;;;;;;31.12;68.26;101220.34;5041194;28;66168;-43
2023/10/22 03:13:56;;;;;;;;;;;;;;;31.15;68.44;101219.09;5049670;28;70167;-42
2023/10/22 03:16:26;;;;;;;;;;;;;;;31.16;68.60;101216.16;5042747;28;66073;-41
2023/10/22 03:19:00;;;;;;;;;;;;;;;31.19;68.52;101208.66;5055041;28;70487;-42
2023/10/22 03:21:35;;;;;;;;;;;;;;;31.20;68.50;101204.88;5046218;28;66934;-41
2023/10/22 03:24:07;;;;;;;;;;;;;;;31.09;68.57;101172.00;5034546;28;69934;-41
2023/10/22 03:26:39;;;;;;;;;;;;;;;31.27;68.34;101194.84;5040328;28;66261;-41
2023/10/22 03:29:09;;;;;;;;;;;;;;;31.28;68.33;101186.50;5048869;28;70594;-40
2023/10/22 03:31:39;;;;;;;;;;;;;;;31.30;68.63;101178.16;5039588;28;66363;-40
2023/10/22 03:34:12;;;;;;;;;;;;;;;31.32;68.20;101176.06;5040425;28;69074;-41
2023/10/22 03:36:44;;;;;;;;;;;;;;;31.34;68.61;101172.09;5040832;28;66431;-41
2023/10/22 03:39:17;;;;;;;;;;;;;;;31.36;68.09;101174.59;5038288;28;70042;-41
2023/10/22 03:41:48;;;;;;;;;;;;;;;31.36;68.61;101164.59;5050018;28;65983;-40
2023/10/22 03:44:18;;;;;;;;;;;;;;;31.40;68.36;101167.72;5037388;28;70846;-41
2023/10/22 03:46:52;;;;;;;;;;;;;;;31.40;68.27;101156.88;5036900;28;67001;-41
2023/10/22 03:49:22;;;;;;;;;;;;;;;31.42;68.38;101154.75;5039349;28;69320;-40
2023/10/22 03:51:52;;;;;;;;;;;;;;;31.45;68.26;101142.66;5039947;28;66553;-41
2023/10/22 03:54:22;;;;;;;;;;;;;;;31.47;68.40;101135.13;5037966;28;70945;-41
2023/10/22 03:56:52;;;;;;;;;;;;;;;31.50;68.13;101137.41;5039916;28;66916;-40
2023/10/22 03:59:23;;;;;;;;;;;;;;;31.51;68.22;101129.06;5041434;28;70702;-40
2023/10/22 04:01:55;;;;;;;;;;;;;;;31.54;68.07;101114.25;5039496;28;66651;-40
2023/10/22 04:04:25;;;;;;;;;;;;;;;31.56;68.23;101117.53;5039361;28;69926;-41
2023/10/22 04:07:07;;;;;;;;;;;;;;;31.31;67.93;101074.09;5052202;28;65488;-40
2023/10/22 04:09:38;;;;;;;;;;;;;;;31.59;68.00;101112.53;5039841;28;70596;-41
2023/10/22 04:12:10;;;;;;;;;;;;;;;31.60;68.19;101108.75;5044225;28;66297;-41
2023/10/22 04:14:41;;;;;;;;;;;;;;;31.63;68.30;101103.94;5036167;28;69792;-41
2023/10/22 04:17:11;;;;;;;;;;;;;;;31.63;68.72;101091.22;5036092;28;66040;-41
2023/10/22 04:19:41;;;;;;;;;;;;;;;31.65;68.58;101097.25;5039266;28;70279;-41
2023/10/22 04:22:11;;;;;;;;;;;;;;;31.65;68.93;101085.56;5039391;28;66348;-41
2023/10/22 04:24:41;;;;;;;;;;;;;;;31.67;68.75;101083.47;5039797;28;69298;-41
2023/10/22 04:27:14;;;;;;;;;;;;;;;31.57;68.65;101060.41;5040835;28;66554;-40
2023/10/22 04:29:48;;;;;;;;;;;;;;;31.73;68.65;101071.72;5037644;28;70635;-40
2023/10/22 04:32:22;;;;;;;;;;;;;;;31.58;69.12;101067.47;5039277;28;66819;-41
2023/10/22 04:35:01;;;;;;;;;;;;;;;31.48;69.27;101061.72;5034670;28;70179;-40
2023/10/22 04:37:31;;;;;;;;;;;;;;;31.44;69.75;101062.38;5035778;28;66446;-42
2023/10/22 04:40:02;;;;;;;;;;;;;;;31.37;69.65;101049.72;5035444;28;70709;-42
2023/10/22 04:42:32;;;;;;;;;;;;;;;31.38;69.67;101050.53;5038849;28;65975;-42
2023/10/22 04:45:02;;;;;;;;;;;;;;;31.37;69.29;101049.72;5038426;28;70160;-40
2023/10/22 04:47:32;;;;;;;;;;;;;;;31.37;69.37;101040.72;5037996;28;66145;-42
2023/10/22 04:50:02;;;;;;;;;;;;;;;31.36;69.01;101030.94;5039885;28;70504;-41
2023/10/22 04:52:35;;;;;;;;;;;;;;;31.40;69.22;101029.47;5039853;28;67195;-41
2023/10/22 04:55:06;;;;;;;;;;;;;;;31.38;69.01;101021.53;5036219;28;70645;-43
2023/10/22 04:57:36;;;;;;;;;;;;;;;31.38;69.14;101026.13;5036048;28;65742;-41
2023/10/22 05:00:07;;;;;;;;;;;;;;;31.57;68.70;101018.91;5038334;28;69704;-41
2023/10/22 05:02:40;;;;;;;;;;;;;;;31.70;68.12;101009.78;5052141;28;66644;-40
2023/10/22 05:05:11;;;;;;;;;;;;;;;31.79;67.68;101011.19;5033333;28;70379;-40
2023/10/22 05:07:41;;;;;;;;;;;;;;;31.85;67.71;101010.28;5040054;28;65912;-42
2023/10/22 05:10:12;;;;;;;;;;;;;;;31.91;67.28;101009.41;5039352;28;70637;-48
2023/10/22 05:12:42;;;;;;;;;;;;;;;31.97;66.96;100997.66;5040026;28;66267;-40
2023/10/22 05:15:12;;;;;;;;;;;;;;;32.01;66.84;100985.31;5040561;28;70558;-40
2023/10/22 05:17:42;;;;;;;;;;;;;;;32.04;66.33;100995.72;5038264;28;67048;-40
2023/10/22 05:20:12;;;;;;;;;;;;;;;32.07;66.27;100980.88;5040534;28;70500;-40
2023/10/22 05:22:44;;;;;;;;;;;;;;;32.11;66.19;100967.66;5039708;28;66202;-41
2023/10/22 05:25:14;;;;;;;;;;;;;;;32.14;65.80;100964.50;5039904;28;70302;-41
2023/10/22 05:27:48;;;;;;;;;;;;;;;32.16;65.52;100956.97;5040378;28;66444;-42
2023/10/22 05:30:18;;;;;;;;;;;;;;;32.18;65.39;100957.56;5038839;28;70116;-41
2023/10/22 05:32:51;;;;;;;;;;;;;;;32.20;64.73;100955.44;5039844;28;65726;-42
2023/10/22 05:35:22;;;;;;;;;;;;;;;32.22;64.75;100950.63;5036105;28;69659;-41
2023/10/22 05:37:51;;;;;;;;;;;;;;;32.23;64.63;100939.56;5036100;28;65990;-42
2023/10/22 05:40:22;;;;;;;;;;;;;;;32.25;64.67;100942.03;5037156;28;70656;-40
2023/10/22 05:42:52;;;;;;;;;;;;;;;32.28;64.54;100938.84;5038976;28;66622;-41
2023/10/22 05:45:22;;;;;;;;;;;;;;;32.31;64.53;100924.81;5037565;28;69720;-41
2023/10/22 05:47:52;;;;;;;;;;;;;;;32.33;64.37;100928.13;5036429;28;66316;-41
2023/10/22 05:50:22;;;;;;;;;;;;;;;32.35;64.47;100920.59;5030543;28;70041;-40
2023/10/22 05:52:52;;;;;;;;;;;;;;;32.38;64.48;100920.13;5037609;28;66836;-43
2023/10/22 05:55:22;;;;;;;;;;;;;;;32.38;64.30;100920.13;5038155;28;69175;-42
2023/10/22 05:57:52;;;;;;;;;;;;;;;32.13;64.85;100922.16;5038447;28;66578;-45
2023/10/22 06:00:22;;;;;;;;;;;;;;;32.04;65.31;100914.31;5042400;28;70257;-40
2023/10/22 06:02:52;;;;;;;;;;;;;;;31.92;65.76;100910.69;5042612;28;66917;-41
2023/10/22 06:05:23;;;;;;;;;;;;;;;31.88;66.01;100906.75;5037229;28;69643;-40
2023/10/22 06:07:53;;;;;;;;;;;;;;;31.86;66.51;100900.72;5028476;28;66838;-40
2023/10/22 06:10:27;;;;;;;;;;;;;;;31.84;66.33;100900.09;5043089;28;70580;-39
2023/10/22 06:12:57;;;;;;;;;;;;;;;31.81;66.73;100887.00;5041251;28;65289;-42
2023/10/22 06:15:27;;;;;;;;;;;;;;;31.78;66.67;100892.88;5044667;28;70571;-42
2023/10/22 06:17:57;;;;;;;;;;;;;;;31.78;66.77;100882.03;5046387;28;65128;-41
2023/10/22 06:20:29;;;;;;;;;;;;;;;31.76;66.91;100874.13;5042434;28;70016;-40
2023/10/22 06:23:01;;;;;;;;;;;;;;;31.75;67.12;100871.63;5041713;28;66031;-42
2023/10/22 06:25:32;;;;;;;;;;;;;;;31.76;66.83;100867.88;5042753;28;69797;-41
2023/10/22 06:28:05;;;;;;;;;;;;;;;31.76;67.04;100863.28;5036678;28;65659;-40
2023/10/22 06:30:35;;;;;;;;;;;;;;;31.78;67.10;100863.03;5030631;28;69528;-42
2023/10/22 06:33:05;;;;;;;;;;;;;;;31.78;67.09;100855.72;5042492;28;66261;-41
2023/10/22 06:35:36;;;;;;;;;;;;;;;31.78;67.04;100850.31;5041187;28;69903;-42
2023/10/22 06:38:06;;;;;;;;;;;;;;;31.78;67.16;100849.50;5036277;28;66698;-42
2023/10/22 06:40:36;;;;;;;;;;;;;;;31.78;66.99;100844.88;5042517;28;69185;-41
2023/10/22 06:43:06;;;;;;;;;;;;;;;31.80;67.14;100844.66;5032416;28;66001;-42
2023/10/22 06:45:36;;;;;;;;;;;;;;;31.80;67.36;100836.53;5039145;28;70706;-40
2023/10/22 06:48:07;;;;;;;;;;;;;;;31.82;67.12;100839.84;5042438;28;66687;-41
2023/10/22 06:50:37;;;;;;;;;;;;;;;31.81;67.06;100849.03;5041436;28;70566;-42
2023/10/22 06:53:09;;;;;;;;;;;;;;;31.83;67.33;100845.03;5042578;28;67148;-41
2023/10/22 06:55:41;;;;;;;;;;;;;;;31.83;67.35;100838.78;5040617;28;69802;-40
2023/10/22 06:58:11;;;;;;;;;;;;;;;31.86;67.45;100838.31;5037727;28;66564;-41
2023/10/22 07:00:41;;;;;;;;;;;;;;;31.86;67.65;100840.22;5036542;28;70661;-41
2023/10/22 07:03:11;;;;;;;;;;;;;;;31.87;67.67;100826.41;5041284;28;66202;-41
2023/10/22 07:05:41;;;;;;;;;;;;;;;31.88;67.56;100817.25;5050663;28;69765;-42
2023/10/22 07:08:11;;;;;;;;;;;;;;;31.89;67.68;100810.75;5041536;28;66335;-41
2023/10/22 07:10:42;;;;;;;;;;;;;;;32.15;67.12;100809.59;5035908;28;70110;-41
2023/10/22 07:13:12;;;;;;;;;;;;;;;32.31;66.77;100805.38;5040891;28;66676;-40
2023/10/22 07:15:42;;;;;;;;;;;;;;;32.42;66.40;100812.72;5040328;28;70572;-41
2023/10/22 07:18:14;;;;;;;;;;;;;;;32.53;66.27;100807.59;5034439;28;66817;-42
2023/10/22 07:20:44;;;;;;;;;;;;;;;32.60;65.89;100802.91;5042198;28;70181;-41
2023/10/22 07:23:15;;;;;;;;;;;;;;;32.67;65.66;100792.72;5039695;28;66813;-44
2023/10/22 07:25:46;;;;;;;;;;;;;;;32.72;65.59;100792.84;5041098;28;70262;-42
2023/10/22 07:28:20;;;;;;;;;;;;;;;32.76;65.20;100785.88;5038168;28;66064;-41
2023/10/22 07:30:51;;;;;;;;;;;;;;;32.80;65.36;100776.22;5019087;28;69324;-42
2023/10/22 07:33:20;;;;;;;;;;;;;;;32.84;65.12;100766.50;5011981;28;66942;-41
2023/10/22 07:35:52;;;;;;;;;;;;;;;32.87;64.90;100752.44;5021351;28;70718;-42
2023/10/22 07:38:23;;;;;;;;;;;;;;;32.91;64.95;100750.94;5020582;28;66343;-41
2023/10/22 07:40:55;;;;;;;;;;;;;;;32.96;64.60;100747.50;5020452;28;69752;-41
2023/10/22 07:43:27;;;;;;;;;;;;;;;32.98;64.45;100741.81;5022135;28;66886;-42
2023/10/22 07:46:01;;;;;;;;;;;;;;;32.99;64.59;100738.88;5021067;28;70523;-41
2023/10/22 07:48:32;;;;;;;;;;;;;;;33.01;64.45;100738.66;5019009;28;67078;-41
2023/10/22 07:51:13;;;;;;;;;;;;;;;33.03;64.21;100747.41;5021738;28;70245;-40
2023/10/22 07:53:44;;;;;;;;;;;;;;;33.04;64.23;100749.91;5020353;28;66838;-41
2023/10/22 07:56:20;;;;;;;;;;;;;;;33.06;64.15;100752.38;5021243;28;70176;-41
2023/10/22 07:58:50;;;;;;;;;;;;;;;33.07;64.24;100749.41;5036994;28;67085;-43
2023/10/22 08:01:22;;;;;;;;;;;;;;;33.08;63.97;100731.22;5024891;28;68943;-41
2023/10/22 08:03:52;;;;;;;;;;;;;;;33.09;64.26;100727.41;5019507;28;65338;-41
2023/10/22 08:06:22;;;;;;;;;;;;;;;33.10;64.12;100720.94;5021741;28;69716;-41
2023/10/22 08:08:54;;;;;;;;;;;;;;;33.09;64.09;100713.84;5019405;28;66428;-41
2023/10/22 08:11:24;;;;;;;;;;;;;;;33.11;64.00;100733.44;5020942;28;70249;-40
2023/10/22 08:13:55;;;;;;;;;;;;;;;33.09;63.14;100732.84;5019661;28;66621;-41
2023/10/22 08:16:25;;;;;;;;;;;;;;;33.09;63.03;100743.72;5019255;28;70878;-40
2023/10/22 08:18:55;;;;;;;;;;;;;;;32.88;64.91;100766.88;5012459;28;66550;-41
2023/10/22 08:21:45;;;;;;;;;;;;;;;32.64;66.31;100777.72;5028675;28;71086;-41
2023/10/22 08:24:25;;;;;;;;;;;;;;;32.51;67.38;100798.84;5035324;28;66721;-43
2023/10/22 08:27:00;;;;;;;;;;;;;;;32.46;67.46;100799.56;5026292;28;69981;-42
2023/10/22 08:29:36;;;;;;;;;;;;;;;32.42;68.10;100803.75;5036475;28;66663;-41
2023/10/22 08:32:07;;;;;;;;;;;;;;;32.37;68.60;100809.88;5037988;28;68906;-43
2023/10/22 08:34:36;;;;;;;;;;;;;;;32.35;69.00;100812.00;5035482;28;66745;-41
2023/10/22 08:37:07;;;;;;;;;;;;;;;32.33;70.03;100827.69;5038388;28;70183;-41
2023/10/22 08:39:37;;;;;;;;;;;;;;;32.32;70.60;100831.47;5036890;28;65863;-48
2023/10/22 08:42:16;;;;;;;;;;;;;;;32.33;71.01;100824.97;5052458;28;69790;-43
2023/10/22 08:44:51;;;;;;;;;;;;;;;32.34;71.63;100799.47;5036375;28;66405;-41
2023/10/22 08:47:24;;;;;;;;;;;;;;;32.35;73.02;100795.72;5035737;28;69740;-42
2023/10/22 08:49:55;;;;;;;;;;;;;;;32.32;72.96;100800.78;5037850;28;66011;-41
2023/10/22 08:52:25;;;;;;;;;;;;;;;32.33;72.74;100830.41;5034729;28;70611;-41
2023/10/22 08:54:55;;;;;;;;;;;;;;;32.31;72.78;100850.69;5025908;28;66819;-43
2023/10/22 08:57:27;;;;;;;;;;;;;;;32.30;72.92;100844.44;5032603;28;69706;-43
2023/10/22 08:59:57;;;;;;;;;;;;;;;32.29;73.31;100850.94;5030764;28;66420;-42
2023/10/22 09:02:27;;;;;;;;;;;;;;;32.27;73.63;100877.50;5034558;28;70486;-42
2023/10/22 09:04:58;;;;;;;;;;;;;;;32.32;73.42;100896.63;5038998;28;66288;-40
2023/10/22 09:07:46;;;;;;;;;;;;;;;32.27;73.37;100902.75;5037334;28;70371;-41
2023/10/22 09:10:23;;;;;;;;;;;;;;;32.26;73.83;100921.97;5036861;28;66022;-41
2023/10/22 09:12:53;;;;;;;;;;;;;;;32.23;73.81;100933.28;5038779;28;69249;-43
2023/10/22 09:15:24;;;;;;;;;;;;;;;32.22;73.77;100953.34;5038014;28;66647;-41
2023/10/22 09:18:03;;;;;;;;;;;;;;;32.18;74.41;100963.84;5035750;28;70013;-40
2023/10/22 09:20:34;;;;;;;;;;;;;;;32.19;74.19;100975.50;5038364;28;66756;-40
2023/10/22 09:23:20;;;;;;;;;;;;;;;32.18;74.48;100984.69;5034462;28;70425;-40
2023/10/22 09:25:51;;;;;;;;;;;;;;;32.15;74.54;100975.16;5032585;28;67241;-47
2023/10/22 09:28:24;;;;;;;;;;;;;;;32.10;74.31;100971.44;5039825;28;71316;-42
2023/10/22 09:30:58;;;;;;;;;;;;;;;32.07;74.39;100971.88;5029757;28;66525;-41
2023/10/22 09:33:32;;;;;;;;;;;;;;;32.05;75.12;100964.81;5039876;28;70870;-39
2023/10/22 09:36:04;;;;;;;;;;;;;;;32.04;75.36;100963.16;5040166;28;65609;-41
2023/10/22 09:38:46;;;;;;;;;;;;;;;31.99;75.62;100944.00;5038298;28;70210;-43
2023/10/22 09:41:25;;;;;;;;;;;;;;;31.95;75.60;100975.34;5039415;28;66826;-42
2023/10/22 09:43:59;;;;;;;;;;;;;;;31.95;76.07;100978.06;5037764;28;70993;-41
2023/10/22 09:46:30;;;;;;;;;;;;;;;31.94;76.58;100981.84;5041546;28;65482;-41
2023/10/22 09:49:04;;;;;;;;;;;;;;;31.92;77.02;100964.94;5039397;28;70581;-42
2023/10/22 09:51:38;;;;;;;;;;;;;;;31.94;76.96;100935.72;5037998;28;66918;-41
2023/10/22 09:54:09;;;;;;;;;;;;;;;31.86;77.45;100922.41;5041007;28;69495;-42
2023/10/22 09:56:48;;;;;;;;;;;;;;;31.86;77.50;100917.00;5039738;28;66012;-41
2023/10/22 09:59:22;;;;;;;;;;;;;;;31.84;77.66;100913.66;5041240;28;70630;-42
2023/10/22 10:01:53;;;;;;;;;;;;;;;31.83;77.52;100907.41;5043541;28;66638;-41
2023/10/22 10:04:25;;;;;;;;;;;;;;;31.80;77.75;100913.31;5040297;28;69715;-42
2023/10/22 10:06:55;;;;;;;;;;;;;;;31.80;77.73;100913.31;5041653;28;66311;-42
2023/10/22 10:09:26;;;;;;;;;;;;;;;31.72;77.80;100910.88;5039357;28;70133;-42
2023/10/22 10:11:58;;;;;;;;;;;;;;;31.55;77.80;100916.06;5039854;28;67121;-42
2023/10/22 10:14:31;;;;;;;;;;;;;;;31.42;78.53;100908.06;5052086;28;70915;-41
2023/10/22 10:17:02;;;;;;;;;;;;;;;31.36;78.47;100900.84;5039276;28;67003;-42
2023/10/22 10:19:32;;;;;;;;;;;;;;;31.52;77.67;100905.69;5039431;28;70698;-41
2023/10/22 10:22:02;;;;;;;;;;;;;;;31.65;76.79;100912.00;5036543;28;66721;-42
2023/10/22 10:24:33;;;;;;;;;;;;;;;31.73;75.94;100903.56;5037648;28;70513;-41
2023/10/22 10:27:03;;;;;;;;;;;;;;;31.79;75.43;100905.41;5038610;28;64560;-41
2023/10/22 10:29:32;;;;;;;;;;;;;;;31.84;75.19;100913.66;5043471;28;69915;-41
2023/10/22 10:32:12;;;;;;;;;;;;;;;31.88;74.82;100950.16;5041469;28;64883;-42
2023/10/22 10:34:43;;;;;;;;;;;;;;;31.89;74.53;100965.38;5042469;28;70728;-42
2023/10/22 10:37:18;;;;;;;;;;;;;;;31.92;74.31;100973.09;5040894;28;66474;-42
2023/10/22 10:39:50;;;;;;;;;;;;;;;31.94;74.22;100968.28;5037361;28;68882;-41
2023/10/22 10:42:29;;;;;;;;;;;;;;;31.94;73.67;100973.69;5043686;28;67012;-41
2023/10/22 10:45:02;;;;;;;;;;;;;;;31.96;73.81;100971.59;5033973;28;70159;-42
2023/10/22 10:47:34;;;;;;;;;;;;;;;31.96;73.65;100977.03;5037895;28;65768;-41
2023/10/22 10:50:11;;;;;;;;;;;;;;;31.97;73.54;100973.25;5039397;28;69821;-41
2023/10/22 10:52:42;;;;;;;;;;;;;;;31.96;73.50;100982.44;5039404;28;66320;-41
2023/10/22 10:55:15;;;;;;;;;;;;;;;31.96;73.37;100982.44;5038494;28;71259;-41
2023/10/22 10:57:49;;;;;;;;;;;;;;;31.96;73.51;100995.19;5034811;28;66274;-41
2023/10/22 11:00:20;;;;;;;;;;;;;;;31.94;73.37;100998.13;5039250;28;69718;-42
2023/10/22 11:02:51;;;;;;;;;;;;;;;31.95;73.49;100994.34;5036363;28;66501;-43
2023/10/22 11:05:38;;;;;;;;;;;;;;;31.95;73.35;100990.78;5038759;28;69436;-42
2023/10/22 11:08:12;;;;;;;;;;;;;;;31.94;73.14;100989.97;5042066;28;66635;-41
2023/10/22 11:10:41;;;;;;;;;;;;;;;31.93;73.19;100996.47;5034167;28;70048;-41
2023/10/22 11:13:11;;;;;;;;;;;;;;;31.91;73.39;100990.44;5041155;28;66047;-42
2023/10/22 11:15:41;;;;;;;;;;;;;;;31.91;73.25;100995.00;5041915;28;70731;-42
2023/10/22 11:18:11;;;;;;;;;;;;;;;31.90;73.11;101005.03;5038896;28;66175;-42
2023/10/22 11:20:42;;;;;;;;;;;;;;;31.90;73.40;101012.31;5046475;28;69989;-41
2023/10/22 11:23:19;;;;;;;;;;;;;;;31.88;73.13;101012.56;5039080;28;66564;-41
2023/10/22 11:25:50;;;;;;;;;;;;;;;31.88;72.93;101023.41;5040896;28;70806;-41
2023/10/22 11:28:20;;;;;;;;;;;;;;;31.87;73.11;101019.00;5038312;28;66580;-42
2023/10/22 11:30:50;;;;;;;;;;;;;;;31.86;73.22;101019.25;5041263;28;69723;-41
2023/10/22 11:33:29;;;;;;;;;;;;;;;31.84;73.41;101019.47;5040525;28;65913;-42
2023/10/22 11:36:00;;;;;;;;;;;;;;;31.83;73.29;101028.66;5040453;28;70671;-41
2023/10/22 11:38:30;;;;;;;;;;;;;;;31.82;73.23;101030.56;5037662;28;66100;-41
2023/10/22 11:41:04;;;;;;;;;;;;;;;31.81;73.23;101036.19;5041789;28;70317;-42
2023/10/22 11:43:40;;;;;;;;;;;;;;;31.80;73.17;101042.69;5034264;28;66979;-41
2023/10/22 11:46:11;;;;;;;;;;;;;;;31.80;73.02;101048.09;5040050;28;71087;-42
2023/10/22 11:48:44;;;;;;;;;;;;;;;31.78;73.12;101050.19;5041223;28;65766;-42
2023/10/22 11:51:16;;;;;;;;;;;;;;;31.77;73.10;101059.41;5038178;28;70065;-42
2023/10/22 11:53:47;;;;;;;;;;;;;;;31.76;73.17;101058.56;5041255;28;66597;-41
2023/10/22 11:56:17;;;;;;;;;;;;;;;31.75;73.18;101062.31;5040429;28;70415;-42
2023/10/22 11:58:55;;;;;;;;;;;;;;;31.75;73.59;101072.34;5038619;28;66881;-42
2023/10/22 12:01:25;;;;;;;;;;;;;;;31.74;73.40;101078.84;5039749;28;70156;-42
2023/10/22 12:03:55;;;;;;;;;;;;;;;31.73;73.41;101088.00;5040924;28;65904;-41
2023/10/22 12:06:26;;;;;;;;;;;;;;;31.71;73.40;101092.84;5037301;28;70513;-42
2023/10/22 12:08:56;;;;;;;;;;;;;;;31.71;73.57;101098.25;5038643;28;66088;-42
2023/10/22 12:11:26;;;;;;;;;;;;;;;31.69;73.55;101116.63;5026301;28;69818;-43
2023/10/22 12:13:56;;;;;;;;;;;;;;;31.68;73.57;101109.53;5039202;28;65652;-42
2023/10/22 12:16:26;;;;;;;;;;;;;;;31.67;73.56;101124.16;5040877;28;70437;-41
2023/10/22 12:18:56;;;;;;;;;;;;;;;31.66;73.49;101131.47;5038910;28;66971;-43
2023/10/22 12:21:26;;;;;;;;;;;;;;;31.65;73.50;101134.38;5039099;28;70404;-41
2023/10/22 12:23:57;;;;;;;;;;;;;;;31.65;73.73;101153.34;5035308;28;65996;-43
2023/10/22 12:26:34;;;;;;;;;;;;;;;31.64;73.50;101162.56;5039485;28;70652;-42
2023/10/22 12:29:05;;;;;;;;;;;;;;;31.63;73.59;101169.03;5040867;28;66646;-42
2023/10/22 12:31:35;;;;;;;;;;;;;;;31.63;73.63;101171.75;5040450;28;70589;-43
2023/10/22 12:34:07;;;;;;;;;;;;;;;31.61;73.91;101177.38;5027767;28;65445;-43
2023/10/22 12:36:38;;;;;;;;;;;;;;;31.60;73.77;101184.69;5040354;28;70249;-42
2023/10/22 12:39:08;;;;;;;;;;;;;;;31.60;73.80;101195.53;5040468;28;66889;-42
2023/10/22 12:41:38;;;;;;;;;;;;;;;31.58;73.88;101194.91;5039347;28;70396;-41
2023/10/22 12:44:08;;;;;;;;;;;;;;;31.58;73.72;101205.75;5040361;28;66180;-42
2023/10/22 12:46:38;;;;;;;;;;;;;;;31.58;73.47;101208.47;5039914;28;69932;-43
2023/10/22 12:49:09;;;;;;;;;;;;;;;31.55;73.83;101206.19;5038237;28;65987;-42
2023/10/22 12:51:39;;;;;;;;;;;;;;;31.56;73.55;101224.13;5036668;28;69788;-42
2023/10/22 12:54:09;;;;;;;;;;;;;;;31.54;73.87;101225.41;5035202;28;65952;-42
2023/10/22 12:56:40;;;;;;;;;;;;;;;31.53;73.78;101227.25;5036849;28;69697;-43
2023/10/22 12:59:09;;;;;;;;;;;;;;;31.52;73.81;101228.31;5040230;28;66167;-42